createdAt,value
2023-02-17T00:04:56.342Z,75.33
2023-02-17T00:10:04.447Z,75.24
2023-02-17T00:15:12.675Z,75.27
2023-02-17T00:20:20.513Z,75.31
2023-02-17T00:25:28.939Z,75.19
2023-02-17T00:30:36.786Z,75.21
2023-02-17T00:35:47.141Z,75.30
2023-02-17T00:40:54.594Z,75.16
2023-02-17T00:46:04.670Z,75.17
2023-02-17T00:51:12.850Z,75.23
2023-02-17T00:56:21.017Z,75.21
2023-02-17T01:01:29.518Z,75.33
2023-02-17T01:06:40.757Z,75.14
2023-02-17T01:11:48.261Z,75.25
2023-02-17T01:16:55.673Z,75.25
2023-02-17T01:22:03.217Z,75.26
2023-02-17T01:27:10.946Z,75.26
2023-02-17T01:32:19.092Z,75.18
2023-02-17T01:37:28.313Z,75.26
2023-02-17T01:42:35.807Z,75.29
2023-02-17T01:47:43.460Z,75.34
2023-02-17T01:52:55.462Z,75.18
2023-02-17T01:58:06.665Z,75.22
2023-02-17T02:03:16.939Z,75.40
2023-02-17T02:08:24.386Z,75.25
2023-02-17T02:13:32.501Z,75.31
2023-02-17T02:18:51.295Z,75.26
2023-02-17T02:24:17.782Z,75.32
2023-02-17T02:29:58.407Z,75.52
2023-02-17T02:35:10.971Z,75.50
2023-02-17T02:40:22.285Z,75.34
2023-02-17T02:45:30.032Z,75.34
2023-02-17T02:50:52.268Z,75.43
2023-02-17T02:56:05.188Z,75.43
2023-02-17T03:01:19.725Z,75.30
2023-02-17T03:06:33.869Z,75.34
2023-02-17T03:11:42.174Z,75.36
2023-02-17T03:16:50.656Z,75.38
2023-02-17T03:22:03.716Z,75.27
2023-02-17T03:27:12.612Z,75.40
2023-02-17T03:32:20.830Z,75.42
2023-02-17T03:37:28.717Z,75.51
2023-02-17T03:42:36.281Z,75.45
2023-02-17T03:47:43.925Z,75.45
2023-02-17T03:52:51.280Z,75.53
2023-02-17T03:57:58.803Z,75.61
2023-02-17T04:03:06.225Z,75.57
2023-02-17T04:08:13.760Z,75.55
2023-02-17T04:13:21.155Z,75.53
2023-02-17T04:18:28.731Z,75.48
2023-02-17T04:23:38.324Z,75.47
2023-02-17T04:28:46.343Z,75.67
2023-02-17T04:33:54.150Z,75.53
2023-02-17T04:39:01.861Z,75.61
2023-02-17T04:44:09.201Z,75.59
2023-02-17T04:49:16.702Z,75.55
2023-02-17T04:54:24.587Z,75.71
2023-02-17T04:59:32.430Z,75.59
2023-02-17T05:04:39.898Z,75.69
2023-02-17T05:09:47.673Z,75.82
2023-02-17T05:14:55.567Z,75.82
2023-02-17T05:20:03.510Z,75.86
2023-02-17T05:25:12.058Z,75.94
2023-02-17T05:30:20.326Z,75.92
2023-02-17T05:35:27.854Z,76.01
2023-02-17T05:40:35.915Z,75.99
2023-02-17T05:45:43.184Z,75.99
2023-02-17T05:50:51.460Z,76.30
2023-02-17T05:55:59.303Z,76.29
2023-02-17T06:01:11.639Z,76.38
2023-02-17T06:06:20.177Z,76.34
2023-02-17T06:11:28.406Z,76.36
2023-02-17T06:16:36.267Z,76.26
2023-02-17T06:21:43.920Z,76.47
2023-02-17T06:26:51.672Z,76.40
2023-02-17T06:31:59.545Z,76.43
2023-02-17T06:37:07.353Z,76.37
2023-02-17T06:42:15.860Z,76.59
2023-02-17T06:47:23.624Z,76.67
2023-02-17T06:52:31.513Z,76.38
2023-02-17T06:57:39.253Z,76.49
2023-02-17T07:02:47.349Z,76.72
2023-02-17T07:07:56.474Z,76.82
2023-02-17T07:13:05.013Z,76.61
2023-02-17T07:18:12.824Z,76.70
2023-02-17T07:23:21.018Z,76.88
2023-02-17T07:28:28.756Z,76.61
2023-02-17T07:33:37.430Z,76.75
2023-02-17T07:38:45.640Z,76.78
2023-02-17T07:43:56.099Z,76.89
2023-02-17T07:49:07.025Z,77.04
2023-02-17T07:54:15.472Z,77.04
2023-02-17T07:59:23.142Z,76.93
2023-02-17T08:04:30.591Z,76.94
2023-02-17T08:09:58.034Z,76.92
2023-02-17T08:15:05.391Z,76.85
2023-02-17T08:20:16.307Z,77.19
2023-02-17T08:25:24.698Z,77.03
2023-02-17T08:30:32.475Z,77.16
2023-02-17T08:35:42.371Z,77.06
2023-02-17T08:40:52.902Z,76.99
2023-02-17T08:46:01.459Z,77.03
2023-02-17T08:51:09.924Z,77.18
2023-02-17T08:56:19.483Z,76.93
2023-02-17T09:01:28.511Z,77.00
2023-02-17T09:06:42.231Z,77.00
2023-02-17T09:11:51.183Z,76.92
2023-02-17T09:17:00.089Z,76.91
2023-02-17T09:22:07.984Z,76.92
2023-02-17T09:27:16.588Z,77.03
2023-02-17T09:32:24.340Z,77.04
2023-02-17T09:37:32.003Z,76.96
2023-02-17T09:42:42.470Z,76.98
2023-02-17T09:47:53.548Z,76.94
2023-02-17T09:53:05.407Z,77.13
2023-02-17T09:58:18.702Z,77.12
2023-02-17T10:03:32.909Z,77.03
2023-02-17T10:08:47.704Z,77.17
2023-02-17T10:13:57.587Z,77.30
2023-02-17T10:19:15.303Z,77.37
2023-02-17T10:24:23.360Z,77.49
2023-02-17T10:29:40.034Z,77.34
2023-02-17T10:35:02.155Z,77.50
2023-02-17T10:40:17.162Z,77.36
2023-02-17T10:45:31.980Z,77.40
2023-02-17T10:50:43.657Z,77.30
2023-02-17T10:56:01.530Z,77.49
2023-02-17T11:01:09.362Z,77.36
2023-02-17T11:06:23.452Z,77.36
2023-02-17T11:11:33.454Z,77.60
2023-02-17T11:16:44.502Z,77.34
2023-02-17T11:21:52.135Z,77.33
2023-02-17T11:27:03.560Z,77.38
2023-02-17T11:32:14.175Z,77.33
2023-02-17T11:37:28.385Z,77.42
2023-02-17T11:42:36.330Z,77.31
2023-02-17T11:47:55.399Z,77.15
2023-02-17T11:53:24.415Z,77.23
2023-02-17T11:58:51.848Z,77.16
2023-02-17T12:04:29.487Z,77.09
2023-02-17T12:09:48.242Z,77.09
2023-02-17T12:15:13.392Z,77.13
2023-02-17T12:20:39.966Z,77.27
2023-02-17T12:25:53.283Z,77.06
2023-02-17T12:31:12.137Z,77.13
2023-02-17T12:36:22.887Z,77.09
2023-02-17T12:41:35.153Z,77.00
2023-02-17T12:46:44.097Z,77.10
2023-02-17T12:51:55.302Z,77.30
2023-02-17T12:57:19.215Z,77.07
2023-02-17T13:02:28.835Z,77.13
2023-02-17T13:07:45.897Z,77.00
2023-02-17T13:13:06.313Z,76.91
2023-02-17T13:18:30.666Z,76.87
2023-02-17T13:23:43.293Z,76.94
2023-02-17T13:28:53.622Z,76.92
2023-02-17T13:34:02.774Z,76.81
2023-02-17T13:39:35.620Z,76.75
2023-02-17T13:44:47.327Z,76.94
2023-02-17T13:49:59.431Z,77.05
2023-02-17T13:55:09.510Z,77.04
2023-02-17T14:00:26.493Z,76.99
2023-02-17T14:05:45.213Z,76.93
2023-02-17T14:10:53.359Z,77.15
2023-02-17T14:16:02.474Z,77.03
2023-02-17T14:21:12.970Z,76.90
2023-02-17T14:26:33.639Z,77.09
2023-02-17T14:31:46.566Z,76.96
2023-02-17T14:36:55.070Z,77.02
2023-02-17T14:42:03.400Z,77.16
2023-02-17T14:47:12.588Z,77.20
2023-02-17T14:52:23.826Z,77.18
2023-02-17T14:57:31.481Z,77.14
2023-02-17T15:02:39.074Z,77.14
2023-02-17T15:07:48.359Z,77.08
2023-02-17T15:12:58.302Z,77.12
2023-02-17T15:18:06.012Z,77.19
2023-02-17T15:23:17.321Z,77.23
2023-02-17T15:28:25.652Z,77.21
2023-02-17T15:33:34.256Z,77.53
2023-02-17T15:38:41.893Z,77.46
2023-02-17T15:43:51.054Z,77.45
2023-02-17T15:48:58.525Z,77.43
2023-02-17T15:54:07.873Z,77.47
2023-02-17T15:59:20.713Z,77.53
2023-02-17T16:04:29.063Z,77.73
2023-02-17T16:09:37.498Z,77.73
2023-02-17T16:14:47.011Z,77.95
2023-02-17T16:19:56.175Z,77.85
2023-02-17T16:25:05.219Z,77.86
2023-02-17T16:30:25.558Z,77.78
2023-02-17T16:35:35.401Z,77.87
2023-02-17T16:40:47.644Z,77.85
2023-02-17T16:46:04.817Z,78.07
2023-02-17T16:51:13.536Z,78.06
2023-02-17T16:56:28.040Z,77.95
2023-02-17T17:01:38.204Z,78.03
2023-02-17T17:06:50.349Z,78.20
2023-02-17T17:11:58.908Z,78.35
2023-02-17T17:17:08.315Z,78.44
2023-02-17T17:22:17.007Z,78.41
2023-02-17T17:27:25.820Z,78.53
2023-02-17T17:32:33.078Z,78.54
2023-02-17T17:37:41.750Z,78.78
2023-02-17T17:42:50.575Z,78.99
2023-02-17T17:48:01.373Z,78.99
2023-02-17T17:53:11.309Z,78.84
2023-02-17T17:58:19.818Z,78.99
2023-02-17T18:03:30.679Z,79.03
2023-02-17T18:08:39.957Z,78.95
2023-02-17T18:13:52.411Z,78.86
2023-02-17T18:19:03.316Z,79.07
2023-02-17T18:24:12.232Z,78.99
2023-02-17T18:29:20.702Z,79.08
2023-02-17T18:34:28.428Z,79.19
2023-02-17T18:39:36.512Z,79.11
2023-02-17T18:44:44.438Z,79.30
2023-02-17T18:49:52.751Z,79.24
2023-02-17T18:55:00.291Z,79.29
2023-02-17T19:00:11.221Z,79.49
2023-02-17T19:05:19.167Z,79.34
2023-02-17T19:10:28.161Z,79.51
2023-02-17T19:15:38.436Z,79.52
2023-02-17T19:20:48.503Z,79.86
2023-02-17T19:25:57.184Z,79.89
2023-02-17T19:31:07.624Z,79.78
2023-02-17T19:36:17.516Z,79.90
2023-02-17T19:41:26.226Z,79.88
2023-02-17T19:46:34.478Z,80.02
2023-02-17T19:51:42.712Z,80.18
2023-02-17T19:56:51.373Z,80.04
2023-02-17T20:02:00.229Z,80.24
2023-02-17T20:07:08.557Z,80.08
2023-02-17T20:12:18.120Z,80.12
2023-02-17T20:17:26.326Z,80.31
2023-02-17T20:22:33.751Z,80.37
2023-02-17T20:27:41.877Z,80.25
2023-02-17T20:32:50.974Z,80.18
2023-02-17T20:37:59.671Z,80.16
2023-02-17T20:43:07.166Z,80.37
2023-02-17T20:48:14.940Z,80.53
2023-02-17T20:53:22.927Z,80.34
2023-02-17T20:58:30.599Z,80.19
2023-02-17T21:03:38.622Z,80.33
2023-02-17T21:08:47.930Z,79.97
2023-02-17T21:13:57.725Z,79.82
2023-02-17T21:19:06.826Z,79.54
2023-02-17T21:24:15.257Z,79.26
2023-02-17T21:29:24.209Z,78.72
2023-02-17T21:34:32.980Z,78.43
2023-02-17T21:39:40.540Z,77.82
2023-02-17T21:44:55.792Z,77.40
2023-02-17T21:50:04.115Z,77.05
2023-02-17T21:55:11.879Z,76.46
2023-02-17T22:00:21.353Z,76.01
2023-02-17T22:05:32.201Z,76.04
2023-02-17T22:10:43.035Z,75.74
2023-02-17T22:16:00.907Z,75.56
2023-02-17T22:21:11.629Z,74.85
2023-02-17T22:26:21.063Z,75.13
2023-02-17T22:31:30.562Z,74.89
2023-02-17T22:36:39.310Z,74.89
2023-02-17T22:41:46.945Z,75.21
2023-02-17T22:46:54.313Z,75.21
2023-02-17T22:52:02.336Z,74.89
2023-02-17T22:57:09.748Z,74.58
2023-02-17T23:02:17.790Z,74.95
2023-02-17T23:07:25.975Z,74.96
2023-02-17T23:12:34.470Z,75.20
2023-02-17T23:17:56.653Z,75.07
2023-02-17T23:23:05.122Z,75.06
2023-02-17T23:28:13.418Z,74.81
2023-02-17T23:33:23.980Z,74.81
2023-02-17T23:38:32.998Z,74.86
2023-02-17T23:43:41.740Z,74.48
2023-02-17T23:48:49.806Z,74.37
2023-02-17T23:53:57.237Z,74.18
2023-02-17T23:59:05.506Z,74.02
